sensor_id;sensor_type;location;lat;lon;timestamp;P1;durP1;ratioP1;P2;durP2;ratioP2
10144;SDS011;5113;41.822;23.564;2022-12-10T00:00:48;22.93;;;10.33;;
10144;SDS011;5113;41.822;23.564;2022-12-10T00:03:54;18.87;;;10.93;;
10144;SDS011;5113;41.822;23.564;2022-12-10T00:07:00;18.70;;;9.93;;
10144;SDS011;5113;41.822;23.564;2022-12-10T00:10:07;22.60;;;11.27;;
10144;SDS011;5113;41.822;23.564;2022-12-10T00:13:14;15.63;;;9.07;;
10144;SDS011;5113;41.822;23.564;2022-12-10T00:16:22;21.90;;;10.80;;
10144;SDS011;5113;41.822;23.564;2022-12-10T00:19:30;24.77;;;12.80;;
10144;SDS011;5113;41.822;23.564;2022-12-10T00:22:36;28.90;;;13.33;;
10144;SDS011;5113;41.822;23.564;2022-12-10T00:25:42;24.20;;;10.67;;
10144;SDS011;5113;41.822;23.564;2022-12-10T00:28:49;24.10;;;14.13;;
10144;SDS011;5113;41.822;23.564;2022-12-10T00:31:57;20.67;;;11.67;;
10144;SDS011;5113;41.822;23.564;2022-12-10T00:35:03;20.03;;;10.93;;
10144;SDS011;5113;41.822;23.564;2022-12-10T00:38:10;24.87;;;12.97;;
10144;SDS011;5113;41.822;23.564;2022-12-10T00:41:17;24.43;;;13.47;;
10144;SDS011;5113;41.822;23.564;2022-12-10T00:44:23;26.20;;;11.93;;
10144;SDS011;5113;41.822;23.564;2022-12-10T00:47:31;37.17;;;19.13;;
10144;SDS011;5113;41.822;23.564;2022-12-10T00:50:41;18.67;;;10.43;;
10144;SDS011;5113;41.822;23.564;2022-12-10T00:53:48;19.13;;;9.27;;
10144;SDS011;5113;41.822;23.564;2022-12-10T00:56:55;15.30;;;8.33;;
10144;SDS011;5113;41.822;23.564;2022-12-10T01:00:02;16.37;;;7.07;;
10144;SDS011;5113;41.822;23.564;2022-12-10T01:03:14;25.03;;;7.93;;
10144;SDS011;5113;41.822;23.564;2022-12-10T01:06:22;13.00;;;7.70;;
10144;SDS011;5113;41.822;23.564;2022-12-10T01:09:29;34.17;;;14.03;;
10144;SDS011;5113;41.822;23.564;2022-12-10T01:12:36;31.73;;;15.00;;
10144;SDS011;5113;41.822;23.564;2022-12-10T01:15:42;22.80;;;12.50;;
10144;SDS011;5113;41.822;23.564;2022-12-10T01:18:50;34.67;;;13.67;;
10144;SDS011;5113;41.822;23.564;2022-12-10T01:21:58;26.90;;;11.27;;
10144;SDS011;5113;41.822;23.564;2022-12-10T01:25:05;29.60;;;15.07;;
10144;SDS011;5113;41.822;23.564;2022-12-10T01:28:11;23.37;;;12.00;;
10144;SDS011;5113;41.822;23.564;2022-12-10T01:31:18;37.87;;;14.63;;
10144;SDS011;5113;41.822;23.564;2022-12-10T01:34:26;56.37;;;23.07;;
10144;SDS011;5113;41.822;23.564;2022-12-10T01:37:32;34.27;;;18.10;;
10144;SDS011;5113;41.822;23.564;2022-12-10T01:40:41;28.03;;;14.17;;
10144;SDS011;5113;41.822;23.564;2022-12-10T01:43:49;20.30;;;9.73;;
10144;SDS011;5113;41.822;23.564;2022-12-10T01:46:58;37.70;;;17.10;;
10144;SDS011;5113;41.822;23.564;2022-12-10T01:50:07;15.37;;;10.27;;
10144;SDS011;5113;41.822;23.564;2022-12-10T01:53:14;15.20;;;10.83;;
10144;SDS011;5113;41.822;23.564;2022-12-10T01:56:21;30.70;;;20.43;;
10144;SDS011;5113;41.822;23.564;2022-12-10T01:59:28;19.77;;;11.20;;
10144;SDS011;5113;41.822;23.564;2022-12-10T02:02:38;14.67;;;9.27;;
10144;SDS011;5113;41.822;23.564;2022-12-10T02:06:14;13.00;;;8.60;;
10144;SDS011;5113;41.822;23.564;2022-12-10T02:09:27;13.20;;;8.20;;
10144;SDS011;5113;41.822;23.564;2022-12-10T02:12:41;11.80;;;7.43;;
10144;SDS011;5113;41.822;23.564;2022-12-10T02:15:52;24.10;;;11.17;;
10144;SDS011;5113;41.822;23.564;2022-12-10T02:19:06;15.00;;;9.30;;
10144;SDS011;5113;41.822;23.564;2022-12-10T02:22:23;21.67;;;8.90;;
10144;SDS011;5113;41.822;23.564;2022-12-10T02:25:34;14.03;;;7.37;;
10144;SDS011;5113;41.822;23.564;2022-12-10T02:28:48;79.90;;;32.27;;
10144;SDS011;5113;41.822;23.564;2022-12-10T02:32:03;26.10;;;11.63;;
10144;SDS011;5113;41.822;23.564;2022-12-10T02:35:14;23.73;;;13.60;;
10144;SDS011;5113;41.822;23.564;2022-12-10T02:38:26;26.27;;;13.20;;
10144;SDS011;5113;41.822;23.564;2022-12-10T02:41:36;29.53;;;15.83;;
10144;SDS011;5113;41.822;23.564;2022-12-10T02:44:46;28.00;;;11.43;;
10144;SDS011;5113;41.822;23.564;2022-12-10T02:47:57;13.17;;;7.97;;
10144;SDS011;5113;41.822;23.564;2022-12-10T02:51:06;18.13;;;9.50;;
10144;SDS011;5113;41.822;23.564;2022-12-10T02:57:44;17.60;;;9.50;;
10144;SDS011;5113;41.822;23.564;2022-12-10T03:01:06;15.83;;;7.73;;
10144;SDS011;5113;41.822;23.564;2022-12-10T03:04:22;13.33;;;8.17;;
10144;SDS011;5113;41.822;23.564;2022-12-10T03:07:35;14.30;;;8.30;;
10144;SDS011;5113;41.822;23.564;2022-12-10T03:10:48;15.20;;;7.67;;
10144;SDS011;5113;41.822;23.564;2022-12-10T03:14:00;10.33;;;6.70;;
10144;SDS011;5113;41.822;23.564;2022-12-10T03:17:10;9.93;;;7.30;;
10144;SDS011;5113;41.822;23.564;2022-12-10T03:20:19;12.00;;;7.50;;
10144;SDS011;5113;41.822;23.564;2022-12-10T03:23:28;14.43;;;8.37;;
10144;SDS011;5113;41.822;23.564;2022-12-10T03:26:37;14.87;;;8.20;;
10144;SDS011;5113;41.822;23.564;2022-12-10T03:29:45;14.57;;;7.70;;
10144;SDS011;5113;41.822;23.564;2022-12-10T03:32:54;15.50;;;9.53;;
10144;SDS011;5113;41.822;23.564;2022-12-10T03:36:02;16.93;;;8.37;;
10144;SDS011;5113;41.822;23.564;2022-12-10T03:39:12;21.67;;;10.57;;
10144;SDS011;5113;41.822;23.564;2022-12-10T03:42:19;30.57;;;12.20;;
10144;SDS011;5113;41.822;23.564;2022-12-10T03:45:25;16.43;;;12.40;;
10144;SDS011;5113;41.822;23.564;2022-12-10T03:48:32;18.57;;;11.13;;
10144;SDS011;5113;41.822;23.564;2022-12-10T03:51:40;17.87;;;11.10;;
10144;SDS011;5113;41.822;23.564;2022-12-10T03:54:47;19.77;;;12.30;;
10144;SDS011;5113;41.822;23.564;2022-12-10T03:57:53;21.83;;;11.60;;
10144;SDS011;5113;41.822;23.564;2022-12-10T04:00:59;25.10;;;14.03;;
10144;SDS011;5113;41.822;23.564;2022-12-10T04:04:06;28.27;;;15.10;;
10144;SDS011;5113;41.822;23.564;2022-12-10T04:07:14;37.90;;;24.00;;
10144;SDS011;5113;41.822;23.564;2022-12-10T04:10:21;31.10;;;16.73;;
10144;SDS011;5113;41.822;23.564;2022-12-10T04:13:27;43.40;;;25.73;;
10144;SDS011;5113;41.822;23.564;2022-12-10T04:16:52;60.90;;;30.33;;
10144;SDS011;5113;41.822;23.564;2022-12-10T04:19:58;71.57;;;34.07;;
10144;SDS011;5113;41.822;23.564;2022-12-10T04:23:06;63.30;;;31.50;;
10144;SDS011;5113;41.822;23.564;2022-12-10T04:26:31;45.37;;;15.97;;
10144;SDS011;5113;41.822;23.564;2022-12-10T04:29:55;43.20;;;23.13;;
10144;SDS011;5113;41.822;23.564;2022-12-10T04:33:02;19.37;;;11.93;;
10144;SDS011;5113;41.822;23.564;2022-12-10T04:36:09;21.57;;;10.30;;
10144;SDS011;5113;41.822;23.564;2022-12-10T04:39:17;12.63;;;8.27;;
10144;SDS011;5113;41.822;23.564;2022-12-10T04:42:23;12.90;;;7.47;;
10144;SDS011;5113;41.822;23.564;2022-12-10T04:45:29;12.63;;;6.77;;
10144;SDS011;5113;41.822;23.564;2022-12-10T04:48:35;9.70;;;8.67;;
10144;SDS011;5113;41.822;23.564;2022-12-10T04:51:41;15.37;;;11.07;;
10144;SDS011;5113;41.822;23.564;2022-12-10T04:54:50;31.80;;;21.67;;
10144;SDS011;5113;41.822;23.564;2022-12-10T04:57:56;18.37;;;12.17;;
10144;SDS011;5113;41.822;23.564;2022-12-10T05:01:03;14.33;;;12.03;;
10144;SDS011;5113;41.822;23.564;2022-12-10T05:04:10;16.80;;;11.37;;
10144;SDS011;5113;41.822;23.564;2022-12-10T05:07:18;11.23;;;9.30;;
10144;SDS011;5113;41.822;23.564;2022-12-10T05:10:26;14.67;;;10.40;;
10144;SDS011;5113;41.822;23.564;2022-12-10T05:13:32;21.60;;;13.80;;
10144;SDS011;5113;41.822;23.564;2022-12-10T05:16:40;38.97;;;21.17;;
10144;SDS011;5113;41.822;23.564;2022-12-10T05:19:46;63.10;;;29.43;;
10144;SDS011;5113;41.822;23.564;2022-12-10T05:22:53;46.47;;;26.73;;
10144;SDS011;5113;41.822;23.564;2022-12-10T05:26:19;37.43;;;20.87;;
10144;SDS011;5113;41.822;23.564;2022-12-10T05:29:27;20.43;;;13.80;;
10144;SDS011;5113;41.822;23.564;2022-12-10T05:32:33;19.43;;;12.93;;
10144;SDS011;5113;41.822;23.564;2022-12-10T05:35:40;35.03;;;20.23;;
10144;SDS011;5113;41.822;23.564;2022-12-10T05:38:47;33.77;;;21.37;;
10144;SDS011;5113;41.822;23.564;2022-12-10T05:41:55;44.30;;;25.77;;
10144;SDS011;5113;41.822;23.564;2022-12-10T05:45:01;41.13;;;22.90;;
10144;SDS011;5113;41.822;23.564;2022-12-10T05:48:08;39.60;;;22.43;;
10144;SDS011;5113;41.822;23.564;2022-12-10T05:51:15;29.63;;;16.73;;
10144;SDS011;5113;41.822;23.564;2022-12-10T05:54:22;32.00;;;19.17;;
10144;SDS011;5113;41.822;23.564;2022-12-10T05:57:30;41.50;;;25.83;;
10144;SDS011;5113;41.822;23.564;2022-12-10T06:00:38;40.87;;;21.70;;
10144;SDS011;5113;41.822;23.564;2022-12-10T06:03:45;39.47;;;19.90;;
10144;SDS011;5113;41.822;23.564;2022-12-10T06:06:51;31.30;;;16.87;;
10144;SDS011;5113;41.822;23.564;2022-12-10T06:09:57;46.30;;;26.03;;
10144;SDS011;5113;41.822;23.564;2022-12-10T06:13:05;25.67;;;15.30;;
10144;SDS011;5113;41.822;23.564;2022-12-10T06:16:12;36.70;;;19.60;;
10144;SDS011;5113;41.822;23.564;2022-12-10T06:19:19;45.77;;;22.90;;
10144;SDS011;5113;41.822;23.564;2022-12-10T06:22:25;42.47;;;18.97;;
10144;SDS011;5113;41.822;23.564;2022-12-10T06:25:32;40.13;;;17.20;;
10144;SDS011;5113;41.822;23.564;2022-12-10T06:28:40;28.70;;;13.07;;
10144;SDS011;5113;41.822;23.564;2022-12-10T06:31:46;42.53;;;20.77;;
10144;SDS011;5113;41.822;23.564;2022-12-10T06:34:53;39.13;;;20.43;;
10144;SDS011;5113;41.822;23.564;2022-12-10T06:37:59;48.17;;;27.10;;
10144;SDS011;5113;41.822;23.564;2022-12-10T06:41:06;58.57;;;29.60;;
10144;SDS011;5113;41.822;23.564;2022-12-10T06:44:15;35.30;;;22.10;;
10144;SDS011;5113;41.822;23.564;2022-12-10T06:47:20;202.27;;;94.30;;
10144;SDS011;5113;41.822;23.564;2022-12-10T06:50:27;84.33;;;44.43;;
10144;SDS011;5113;41.822;23.564;2022-12-10T06:53:34;47.03;;;26.63;;
10144;SDS011;5113;41.822;23.564;2022-12-10T06:56:42;58.37;;;33.07;;
10144;SDS011;5113;41.822;23.564;2022-12-10T06:59:49;55.53;;;29.13;;
10144;SDS011;5113;41.822;23.564;2022-12-10T07:02:56;47.00;;;28.53;;
10144;SDS011;5113;41.822;23.564;2022-12-10T07:06:03;60.87;;;33.73;;
10144;SDS011;5113;41.822;23.564;2022-12-10T07:09:11;50.03;;;29.40;;
10144;SDS011;5113;41.822;23.564;2022-12-10T07:12:17;59.83;;;28.77;;
10144;SDS011;5113;41.822;23.564;2022-12-10T07:15:25;62.87;;;38.77;;
10144;SDS011;5113;41.822;23.564;2022-12-10T07:18:32;60.17;;;36.20;;
10144;SDS011;5113;41.822;23.564;2022-12-10T07:21:39;45.97;;;23.40;;
10144;SDS011;5113;41.822;23.564;2022-12-10T07:24:47;46.20;;;23.00;;
10144;SDS011;5113;41.822;23.564;2022-12-10T07:27:54;30.53;;;19.90;;
10144;SDS011;5113;41.822;23.564;2022-12-10T07:31:03;52.27;;;29.13;;
10144;SDS011;5113;41.822;23.564;2022-12-10T07:34:11;36.27;;;17.47;;
10144;SDS011;5113;41.822;23.564;2022-12-10T07:37:21;24.50;;;16.73;;
10144;SDS011;5113;41.822;23.564;2022-12-10T07:40:27;35.47;;;18.47;;
10144;SDS011;5113;41.822;23.564;2022-12-10T07:43:35;41.27;;;24.27;;
10144;SDS011;5113;41.822;23.564;2022-12-10T07:46:43;39.80;;;20.23;;
10144;SDS011;5113;41.822;23.564;2022-12-10T07:49:50;34.73;;;19.60;;
10144;SDS011;5113;41.822;23.564;2022-12-10T07:52:56;29.30;;;19.37;;
10144;SDS011;5113;41.822;23.564;2022-12-10T07:56:03;31.00;;;19.67;;
10144;SDS011;5113;41.822;23.564;2022-12-10T07:59:10;64.03;;;31.97;;
10144;SDS011;5113;41.822;23.564;2022-12-10T08:02:18;68.87;;;37.10;;
10144;SDS011;5113;41.822;23.564;2022-12-10T08:05:24;91.87;;;44.37;;
10144;SDS011;5113;41.822;23.564;2022-12-10T08:08:30;71.20;;;38.47;;
10144;SDS011;5113;41.822;23.564;2022-12-10T08:11:37;83.37;;;38.27;;
10144;SDS011;5113;41.822;23.564;2022-12-10T08:14:43;89.30;;;49.63;;
10144;SDS011;5113;41.822;23.564;2022-12-10T08:17:51;86.53;;;50.57;;
10144;SDS011;5113;41.822;23.564;2022-12-10T08:20:57;46.73;;;29.20;;
10144;SDS011;5113;41.822;23.564;2022-12-10T08:24:04;33.00;;;20.67;;
10144;SDS011;5113;41.822;23.564;2022-12-10T08:27:11;30.23;;;20.47;;
10144;SDS011;5113;41.822;23.564;2022-12-10T08:30:18;41.97;;;23.87;;
10144;SDS011;5113;41.822;23.564;2022-12-10T08:33:25;34.37;;;21.70;;
10144;SDS011;5113;41.822;23.564;2022-12-10T08:36:32;33.63;;;21.10;;
10144;SDS011;5113;41.822;23.564;2022-12-10T08:39:38;47.77;;;24.53;;
10144;SDS011;5113;41.822;23.564;2022-12-10T08:42:45;30.27;;;18.20;;
10144;SDS011;5113;41.822;23.564;2022-12-10T08:45:59;20.33;;;12.03;;
10144;SDS011;5113;41.822;23.564;2022-12-10T08:49:07;23.00;;;11.17;;
10144;SDS011;5113;41.822;23.564;2022-12-10T08:52:13;21.10;;;13.77;;
10144;SDS011;5113;41.822;23.564;2022-12-10T08:55:19;34.90;;;19.17;;
10144;SDS011;5113;41.822;23.564;2022-12-10T08:58:25;41.23;;;23.33;;
10144;SDS011;5113;41.822;23.564;2022-12-10T09:01:32;41.03;;;23.10;;
10144;SDS011;5113;41.822;23.564;2022-12-10T09:04:40;31.27;;;18.70;;
10144;SDS011;5113;41.822;23.564;2022-12-10T09:07:47;26.17;;;17.13;;
10144;SDS011;5113;41.822;23.564;2022-12-10T09:10:54;64.93;;;31.73;;
10144;SDS011;5113;41.822;23.564;2022-12-10T09:14:00;26.27;;;16.50;;
10144;SDS011;5113;41.822;23.564;2022-12-10T09:17:07;27.73;;;14.93;;
10144;SDS011;5113;41.822;23.564;2022-12-10T09:20:16;33.27;;;17.40;;
10144;SDS011;5113;41.822;23.564;2022-12-10T09:23:22;27.17;;;17.47;;
10144;SDS011;5113;41.822;23.564;2022-12-10T09:26:29;31.27;;;18.50;;
10144;SDS011;5113;41.822;23.564;2022-12-10T09:29:36;29.73;;;19.67;;
10144;SDS011;5113;41.822;23.564;2022-12-10T09:32:43;22.50;;;15.30;;
10144;SDS011;5113;41.822;23.564;2022-12-10T09:35:50;31.67;;;12.63;;
10144;SDS011;5113;41.822;23.564;2022-12-10T09:38:57;27.47;;;14.43;;
10144;SDS011;5113;41.822;23.564;2022-12-10T09:42:07;28.03;;;15.23;;
10144;SDS011;5113;41.822;23.564;2022-12-10T09:45:26;34.70;;;20.00;;
10144;SDS011;5113;41.822;23.564;2022-12-10T09:48:40;22.43;;;14.73;;
10144;SDS011;5113;41.822;23.564;2022-12-10T09:52:03;21.50;;;11.67;;
10144;SDS011;5113;41.822;23.564;2022-12-10T09:55:12;15.43;;;10.00;;
10144;SDS011;5113;41.822;23.564;2022-12-10T09:58:22;21.43;;;13.07;;
10144;SDS011;5113;41.822;23.564;2022-12-10T10:01:33;35.03;;;19.57;;
10144;SDS011;5113;41.822;23.564;2022-12-10T10:04:40;29.07;;;17.00;;
10144;SDS011;5113;41.822;23.564;2022-12-10T10:07:49;32.23;;;20.93;;
10144;SDS011;5113;41.822;23.564;2022-12-10T10:10:58;42.93;;;22.30;;
10144;SDS011;5113;41.822;23.564;2022-12-10T10:14:08;31.73;;;18.23;;
10144;SDS011;5113;41.822;23.564;2022-12-10T10:17:20;33.67;;;19.60;;
10144;SDS011;5113;41.822;23.564;2022-12-10T10:20:36;43.43;;;24.93;;
10144;SDS011;5113;41.822;23.564;2022-12-10T10:23:45;57.57;;;31.37;;
10144;SDS011;5113;41.822;23.564;2022-12-10T10:26:56;46.37;;;26.57;;
10144;SDS011;5113;41.822;23.564;2022-12-10T10:30:04;51.30;;;27.67;;
10144;SDS011;5113;41.822;23.564;2022-12-10T10:33:13;44.63;;;22.70;;
10144;SDS011;5113;41.822;23.564;2022-12-10T10:36:24;33.07;;;19.03;;
10144;SDS011;5113;41.822;23.564;2022-12-10T10:39:34;29.07;;;19.53;;
10144;SDS011;5113;41.822;23.564;2022-12-10T10:42:40;17.70;;;12.43;;
10144;SDS011;5113;41.822;23.564;2022-12-10T10:45:49;28.80;;;14.37;;
10144;SDS011;5113;41.822;23.564;2022-12-10T10:49:12;18.70;;;9.90;;
10144;SDS011;5113;41.822;23.564;2022-12-10T10:52:20;29.83;;;16.47;;
10144;SDS011;5113;41.822;23.564;2022-12-10T10:55:32;19.80;;;12.47;;
10144;SDS011;5113;41.822;23.564;2022-12-10T10:58:45;18.23;;;12.40;;
10144;SDS011;5113;41.822;23.564;2022-12-10T11:01:58;19.93;;;12.33;;
10144;SDS011;5113;41.822;23.564;2022-12-10T11:05:15;19.53;;;11.07;;
10144;SDS011;5113;41.822;23.564;2022-12-10T11:08:28;14.50;;;8.97;;
10144;SDS011;5113;41.822;23.564;2022-12-10T11:11:39;11.53;;;7.27;;
10144;SDS011;5113;41.822;23.564;2022-12-10T11:14:50;6.40;;;4.67;;
10144;SDS011;5113;41.822;23.564;2022-12-10T11:17:57;14.27;;;8.20;;
10144;SDS011;5113;41.822;23.564;2022-12-10T11:21:04;27.57;;;13.17;;
10144;SDS011;5113;41.822;23.564;2022-12-10T11:24:12;18.47;;;12.70;;
10144;SDS011;5113;41.822;23.564;2022-12-10T11:27:28;24.97;;;13.33;;
10144;SDS011;5113;41.822;23.564;2022-12-10T11:30:43;27.40;;;16.90;;
10144;SDS011;5113;41.822;23.564;2022-12-10T11:33:58;27.63;;;15.80;;
10144;SDS011;5113;41.822;23.564;2022-12-10T11:37:14;36.93;;;18.87;;
10144;SDS011;5113;41.822;23.564;2022-12-10T11:40:32;71.93;;;30.13;;
10144;SDS011;5113;41.822;23.564;2022-12-10T11:43:47;48.13;;;24.27;;
10144;SDS011;5113;41.822;23.564;2022-12-10T11:47:24;32.23;;;16.87;;
10144;SDS011;5113;41.822;23.564;2022-12-10T11:50:52;28.40;;;15.83;;
10144;SDS011;5113;41.822;23.564;2022-12-10T11:54:22;37.60;;;19.23;;
10144;SDS011;5113;41.822;23.564;2022-12-10T11:57:40;25.87;;;16.60;;
10144;SDS011;5113;41.822;23.564;2022-12-10T12:00:57;27.60;;;17.70;;
10144;SDS011;5113;41.822;23.564;2022-12-10T12:04:30;19.00;;;12.13;;
10144;SDS011;5113;41.822;23.564;2022-12-10T12:07:48;24.37;;;12.17;;
10144;SDS011;5113;41.822;23.564;2022-12-10T12:11:13;25.53;;;17.30;;
10144;SDS011;5113;41.822;23.564;2022-12-10T12:14:31;21.37;;;13.00;;
10144;SDS011;5113;41.822;23.564;2022-12-10T12:17:43;30.10;;;18.73;;
10144;SDS011;5113;41.822;23.564;2022-12-10T12:20:57;27.67;;;14.43;;
10144;SDS011;5113;41.822;23.564;2022-12-10T12:24:05;28.60;;;18.67;;
10144;SDS011;5113;41.822;23.564;2022-12-10T12:27:20;27.70;;;16.10;;
10144;SDS011;5113;41.822;23.564;2022-12-10T12:30:32;20.93;;;11.67;;
10144;SDS011;5113;41.822;23.564;2022-12-10T12:33:42;23.90;;;12.80;;
10144;SDS011;5113;41.822;23.564;2022-12-10T12:36:52;80.80;;;35.97;;
10144;SDS011;5113;41.822;23.564;2022-12-10T12:40:00;50.40;;;23.57;;
10144;SDS011;5113;41.822;23.564;2022-12-10T12:43:16;19.40;;;13.90;;
10144;SDS011;5113;41.822;23.564;2022-12-10T12:46:29;26.30;;;14.63;;
10144;SDS011;5113;41.822;23.564;2022-12-10T12:49:42;27.60;;;15.13;;
10144;SDS011;5113;41.822;23.564;2022-12-10T12:52:50;27.57;;;15.63;;
10144;SDS011;5113;41.822;23.564;2022-12-10T12:55:59;66.07;;;29.80;;
10144;SDS011;5113;41.822;23.564;2022-12-10T12:59:11;39.07;;;20.87;;
10144;SDS011;5113;41.822;23.564;2022-12-10T13:02:29;33.90;;;15.93;;
10144;SDS011;5113;41.822;23.564;2022-12-10T13:05:51;15.00;;;9.77;;
10144;SDS011;5113;41.822;23.564;2022-12-10T13:09:15;21.00;;;12.70;;
10144;SDS011;5113;41.822;23.564;2022-12-10T13:12:29;29.67;;;19.00;;
10144;SDS011;5113;41.822;23.564;2022-12-10T13:15:38;21.23;;;12.27;;
10144;SDS011;5113;41.822;23.564;2022-12-10T13:18:45;24.00;;;16.70;;
10144;SDS011;5113;41.822;23.564;2022-12-10T13:25:54;19.60;;;12.23;;
10144;SDS011;5113;41.822;23.564;2022-12-10T13:29:12;24.07;;;13.43;;
10144;SDS011;5113;41.822;23.564;2022-12-10T13:32:43;31.27;;;14.97;;
10144;SDS011;5113;41.822;23.564;2022-12-10T13:36:00;29.57;;;13.83;;
10144;SDS011;5113;41.822;23.564;2022-12-10T13:39:20;31.60;;;15.90;;
10144;SDS011;5113;41.822;23.564;2022-12-10T13:42:37;40.37;;;18.50;;
10144;SDS011;5113;41.822;23.564;2022-12-10T13:49:28;30.97;;;16.97;;
10144;SDS011;5113;41.822;23.564;2022-12-10T13:52:37;32.53;;;17.93;;
10144;SDS011;5113;41.822;23.564;2022-12-10T13:55:53;40.50;;;22.10;;
10144;SDS011;5113;41.822;23.564;2022-12-10T13:59:13;38.03;;;22.57;;
10144;SDS011;5113;41.822;23.564;2022-12-10T14:02:36;26.40;;;15.37;;
10144;SDS011;5113;41.822;23.564;2022-12-10T14:06:13;39.70;;;23.30;;
10144;SDS011;5113;41.822;23.564;2022-12-10T14:09:23;42.43;;;22.77;;
10144;SDS011;5113;41.822;23.564;2022-12-10T14:12:31;36.53;;;22.97;;
10144;SDS011;5113;41.822;23.564;2022-12-10T14:15:42;24.20;;;14.77;;
10144;SDS011;5113;41.822;23.564;2022-12-10T14:18:57;36.30;;;19.80;;
10144;SDS011;5113;41.822;23.564;2022-12-10T14:22:07;51.30;;;29.33;;
10144;SDS011;5113;41.822;23.564;2022-12-10T14:25:32;48.50;;;28.57;;
10144;SDS011;5113;41.822;23.564;2022-12-10T14:28:48;42.97;;;23.83;;
10144;SDS011;5113;41.822;23.564;2022-12-10T14:31:57;58.97;;;27.97;;
10144;SDS011;5113;41.822;23.564;2022-12-10T14:35:04;79.57;;;38.63;;
10144;SDS011;5113;41.822;23.564;2022-12-10T14:38:16;51.00;;;28.33;;
10144;SDS011;5113;41.822;23.564;2022-12-10T14:41:26;67.63;;;37.47;;
10144;SDS011;5113;41.822;23.564;2022-12-10T14:44:43;84.63;;;39.77;;
10144;SDS011;5113;41.822;23.564;2022-12-10T14:47:54;73.90;;;40.27;;
10144;SDS011;5113;41.822;23.564;2022-12-10T14:51:02;72.87;;;37.60;;
10144;SDS011;5113;41.822;23.564;2022-12-10T14:54:22;76.10;;;41.57;;
10144;SDS011;5113;41.822;23.564;2022-12-10T14:57:31;74.37;;;40.90;;
10144;SDS011;5113;41.822;23.564;2022-12-10T15:00:43;51.73;;;27.17;;
10144;SDS011;5113;41.822;23.564;2022-12-10T15:03:51;41.17;;;23.80;;
10144;SDS011;5113;41.822;23.564;2022-12-10T15:06:58;60.07;;;32.30;;
10144;SDS011;5113;41.822;23.564;2022-12-10T15:10:10;67.07;;;33.70;;
10144;SDS011;5113;41.822;23.564;2022-12-10T15:13:23;96.67;;;40.07;;
10144;SDS011;5113;41.822;23.564;2022-12-10T15:16:38;66.30;;;33.37;;
10144;SDS011;5113;41.822;23.564;2022-12-10T15:19:50;129.47;;;64.60;;
10144;SDS011;5113;41.822;23.564;2022-12-10T15:23:06;63.97;;;29.23;;
10144;SDS011;5113;41.822;23.564;2022-12-10T15:26:22;71.60;;;39.13;;
10144;SDS011;5113;41.822;23.564;2022-12-10T15:29:32;62.47;;;35.33;;
10144;SDS011;5113;41.822;23.564;2022-12-10T15:32:40;61.53;;;33.27;;
10144;SDS011;5113;41.822;23.564;2022-12-10T15:35:55;50.97;;;32.77;;
10144;SDS011;5113;41.822;23.564;2022-12-10T15:39:04;62.90;;;34.60;;
10144;SDS011;5113;41.822;23.564;2022-12-10T15:42:28;66.47;;;32.50;;
10144;SDS011;5113;41.822;23.564;2022-12-10T15:45:42;69.50;;;33.43;;
10144;SDS011;5113;41.822;23.564;2022-12-10T15:48:48;56.20;;;31.53;;
10144;SDS011;5113;41.822;23.564;2022-12-10T15:51:56;63.73;;;36.80;;
10144;SDS011;5113;41.822;23.564;2022-12-10T15:55:04;73.07;;;42.03;;
10144;SDS011;5113;41.822;23.564;2022-12-10T15:58:11;73.80;;;39.03;;
10144;SDS011;5113;41.822;23.564;2022-12-10T16:01:18;83.20;;;41.90;;
10144;SDS011;5113;41.822;23.564;2022-12-10T16:04:25;65.50;;;34.27;;
10144;SDS011;5113;41.822;23.564;2022-12-10T16:07:33;59.70;;;34.77;;
10144;SDS011;5113;41.822;23.564;2022-12-10T16:10:39;55.00;;;33.77;;
10144;SDS011;5113;41.822;23.564;2022-12-10T16:13:48;61.83;;;34.87;;
10144;SDS011;5113;41.822;23.564;2022-12-10T16:16:56;84.40;;;42.83;;
10144;SDS011;5113;41.822;23.564;2022-12-10T16:20:09;82.10;;;41.47;;
10144;SDS011;5113;41.822;23.564;2022-12-10T16:23:29;68.47;;;35.03;;
10144;SDS011;5113;41.822;23.564;2022-12-10T16:26:36;94.20;;;42.53;;
10144;SDS011;5113;41.822;23.564;2022-12-10T16:29:42;80.37;;;37.53;;
10144;SDS011;5113;41.822;23.564;2022-12-10T16:32:49;77.23;;;38.73;;
10144;SDS011;5113;41.822;23.564;2022-12-10T16:35:57;97.07;;;44.10;;
10144;SDS011;5113;41.822;23.564;2022-12-10T16:39:04;82.90;;;41.53;;
10144;SDS011;5113;41.822;23.564;2022-12-10T16:42:11;79.73;;;40.47;;
10144;SDS011;5113;41.822;23.564;2022-12-10T16:45:33;302.47;;;107.20;;
10144;SDS011;5113;41.822;23.564;2022-12-10T16:48:41;140.40;;;55.93;;
10144;SDS011;5113;41.822;23.564;2022-12-10T16:51:48;177.83;;;74.23;;
10144;SDS011;5113;41.822;23.564;2022-12-10T16:54:56;126.10;;;54.37;;
10144;SDS011;5113;41.822;23.564;2022-12-10T16:58:02;105.73;;;49.63;;
10144;SDS011;5113;41.822;23.564;2022-12-10T17:01:14;94.90;;;44.10;;
10144;SDS011;5113;41.822;23.564;2022-12-10T17:04:36;59.07;;;26.13;;
10144;SDS011;5113;41.822;23.564;2022-12-10T17:07:42;50.37;;;29.90;;
10144;SDS011;5113;41.822;23.564;2022-12-10T17:10:51;62.40;;;32.60;;
10144;SDS011;5113;41.822;23.564;2022-12-10T17:14:31;66.30;;;33.20;;
10144;SDS011;5113;41.822;23.564;2022-12-10T17:17:39;62.20;;;34.30;;
10144;SDS011;5113;41.822;23.564;2022-12-10T17:20:46;60.63;;;35.10;;
10144;SDS011;5113;41.822;23.564;2022-12-10T17:23:52;69.87;;;38.40;;
10144;SDS011;5113;41.822;23.564;2022-12-10T17:27:01;64.60;;;39.37;;
10144;SDS011;5113;41.822;23.564;2022-12-10T17:30:11;63.23;;;38.93;;
10144;SDS011;5113;41.822;23.564;2022-12-10T17:33:21;77.20;;;42.83;;
10144;SDS011;5113;41.822;23.564;2022-12-10T17:36:28;54.00;;;31.00;;
10144;SDS011;5113;41.822;23.564;2022-12-10T17:39:34;119.47;;;60.87;;
10144;SDS011;5113;41.822;23.564;2022-12-10T17:42:42;68.70;;;38.43;;
10144;SDS011;5113;41.822;23.564;2022-12-10T17:45:48;42.73;;;24.63;;
10144;SDS011;5113;41.822;23.564;2022-12-10T17:49:06;23.00;;;12.43;;
10144;SDS011;5113;41.822;23.564;2022-12-10T17:52:12;16.50;;;9.83;;
10144;SDS011;5113;41.822;23.564;2022-12-10T17:55:18;24.23;;;14.43;;
10144;SDS011;5113;41.822;23.564;2022-12-10T17:58:26;7.43;;;5.53;;
10144;SDS011;5113;41.822;23.564;2022-12-10T18:01:33;5.80;;;4.33;;
10144;SDS011;5113;41.822;23.564;2022-12-10T18:04:41;12.67;;;5.03;;
10144;SDS011;5113;41.822;23.564;2022-12-10T18:07:48;10.30;;;5.87;;
10144;SDS011;5113;41.822;23.564;2022-12-10T18:10:54;8.70;;;6.90;;
10144;SDS011;5113;41.822;23.564;2022-12-10T18:14:03;9.20;;;8.23;;
10144;SDS011;5113;41.822;23.564;2022-12-10T18:17:10;8.80;;;4.53;;
10144;SDS011;5113;41.822;23.564;2022-12-10T18:20:21;3.30;;;3.00;;
10144;SDS011;5113;41.822;23.564;2022-12-10T18:23:29;6.60;;;3.67;;
10144;SDS011;5113;41.822;23.564;2022-12-10T18:26:36;3.77;;;3.03;;
10144;SDS011;5113;41.822;23.564;2022-12-10T18:29:43;10.00;;;6.30;;
10144;SDS011;5113;41.822;23.564;2022-12-10T18:32:50;12.47;;;6.33;;
10144;SDS011;5113;41.822;23.564;2022-12-10T18:35:57;5.47;;;3.73;;
10144;SDS011;5113;41.822;23.564;2022-12-10T18:39:18;6.13;;;4.80;;
10144;SDS011;5113;41.822;23.564;2022-12-10T18:42:26;10.70;;;4.67;;
10144;SDS011;5113;41.822;23.564;2022-12-10T18:45:34;6.87;;;3.73;;